createdAt,value
2018-03-08T08:44:49.701Z,91.94
2018-03-08T08:45:51.566Z,91.71
2018-03-08T08:46:53.440Z,92.04
2018-03-08T08:47:55.311Z,91.38
2018-03-08T08:48:57.103Z,91.19
2018-03-08T08:49:59.225Z,90.90
2018-03-08T08:51:01.035Z,90.62
2018-03-08T08:52:02.896Z,90.71
2018-03-08T08:53:04.781Z,90.52
2018-03-08T08:54:18.927Z,89.95
2018-03-08T08:55:20.882Z,89.86
2018-03-08T08:56:22.772Z,89.48
2018-03-08T08:57:24.651Z,89.14
2018-03-08T08:58:26.453Z,88.57
2018-03-08T08:59:28.266Z,87.91
2018-03-08T09:00:30.125Z,87.53
2018-03-08T09:01:31.991Z,87.15
2018-03-08T09:02:33.877Z,86.24
2018-03-08T09:03:48.028Z,85.39
2018-03-08T09:04:49.897Z,85.01
2018-03-08T09:05:51.773Z,84.25
2018-03-08T09:06:53.655Z,83.78
2018-03-08T09:07:55.453Z,83.20
2018-03-08T09:08:57.249Z,82.87
2018-03-08T09:09:59.115Z,82.64
2018-03-08T09:11:01.001Z,82.77
2018-03-08T09:12:02.861Z,82.49
2018-03-08T09:13:17.014Z,82.20
2018-03-08T09:14:18.876Z,81.54
2018-03-08T09:15:20.744Z,80.96
2018-03-08T09:16:22.628Z,81.06
2018-03-08T09:17:24.446Z,80.96
2018-03-08T09:18:26.244Z,81.20
2018-03-08T09:19:28.132Z,80.72
2018-03-08T09:20:30.012Z,80.53
2018-03-08T09:21:31.877Z,80.24
2018-03-08T09:22:46.055Z,80.24
2018-03-08T09:23:47.916Z,79.77
2018-03-08T09:24:49.782Z,79.77
2018-03-08T09:25:51.644Z,79.49
2018-03-08T09:26:53.465Z,79.30
2018-03-08T09:27:55.266Z,78.72
2018-03-08T09:28:57.131Z,78.10
2018-03-08T09:29:58.993Z,77.91
2018-03-08T09:31:00.854Z,77.81
2018-03-08T09:32:14.991Z,77.62
2018-03-08T09:33:16.857Z,77.05
2018-03-08T09:34:18.726Z,77.24
2018-03-08T09:35:20.601Z,76.39
2018-03-08T09:36:22.446Z,76.42
2018-03-08T09:37:24.235Z,76.33
2018-03-08T09:38:26.035Z,75.76
2018-03-08T09:39:27.843Z,75.47
2018-03-08T09:40:29.699Z,75.19
2018-03-08T09:41:43.854Z,74.71
2018-03-08T09:42:45.719Z,74.46
2018-03-08T09:43:47.616Z,74.46
2018-03-08T09:44:49.486Z,73.41
2018-03-08T09:45:51.308Z,73.22
2018-03-08T09:46:53.133Z,72.65
2018-03-08T09:47:55.018Z,72.75
2018-03-08T09:48:56.904Z,72.56
2018-03-08T09:49:58.797Z,72.50
2018-03-08T09:51:12.952Z,71.83
2018-03-08T09:52:14.837Z,71.36
2018-03-08T09:53:16.721Z,71.20
2018-03-08T09:54:18.587Z,70.63
2018-03-08T09:55:20.393Z,70.72
2018-03-08T09:56:22.196Z,69.77
2018-03-08T09:57:24.061Z,68.95
2018-03-08T09:58:25.932Z,68.38
2018-03-08T09:59:27.795Z,67.80
2018-03-08T10:00:41.939Z,67.14
2018-03-08T10:01:43.805Z,66.85
2018-03-08T10:02:45.676Z,66.60
2018-03-08T10:03:47.567Z,66.69
2018-03-08T10:04:49.387Z,65.93
2018-03-08T10:05:51.191Z,65.93
2018-03-08T10:06:53.057Z,65.93
2018-03-08T10:07:54.939Z,65.93
2018-03-08T10:08:56.811Z,65.45
2018-03-08T10:10:11.028Z,65.55
2018-03-08T10:11:13.280Z,64.59
2018-03-08T10:12:15.520Z,64.37
2018-03-08T10:13:17.570Z,64.75
2018-03-08T10:14:19.787Z,64.75
2018-03-08T10:15:21.600Z,64.37
2018-03-08T10:16:23.516Z,65.04
2018-03-08T10:17:25.416Z,65.04
2018-03-08T10:18:27.557Z,63.89
2018-03-08T10:19:41.763Z,63.89
2018-03-08T10:20:43.930Z,64.56
2018-03-08T10:21:46.038Z,63.70
2018-03-08T10:22:48.300Z,63.80
2018-03-08T10:23:50.108Z,64.37
2018-03-08T10:24:52.363Z,63.60
2018-03-08T10:25:54.380Z,63.60
2018-03-08T10:26:56.297Z,63.51
2018-03-08T10:27:58.375Z,63.13
2018-03-08T10:29:12.709Z,63.60
2018-03-08T10:30:14.869Z,63.23
2018-03-08T10:31:17.026Z,63.13
2018-03-08T10:32:19.316Z,63.35
2018-03-08T10:33:21.497Z,63.16
2018-03-08T10:34:23.508Z,62.78
2018-03-08T10:35:25.795Z,62.97
2018-03-08T10:36:27.674Z,62.81
2018-03-08T10:37:29.995Z,62.15
2018-03-08T10:38:44.487Z,62.15
2018-03-08T10:39:46.359Z,61.38
2018-03-08T10:40:48.533Z,60.71
2018-03-08T10:41:50.735Z,60.87
2018-03-08T10:42:52.726Z,60.87
2018-03-08T10:43:54.532Z,61.70
2018-03-08T10:44:56.893Z,61.89
2018-03-08T10:45:58.778Z,62.37
2018-03-08T10:47:00.595Z,61.89
2018-03-08T10:48:14.732Z,62.08
2018-03-08T10:49:16.600Z,62.46
2018-03-08T10:50:18.453Z,62.91
2018-03-08T10:51:20.326Z,62.91
2018-03-08T10:52:22.131Z,63.48
2018-03-08T10:53:23.956Z,63.57
2018-03-08T10:54:25.823Z,63.76
2018-03-08T10:55:27.714Z,64.40
2018-03-08T10:56:29.581Z,65.45
2018-03-08T10:57:43.759Z,65.55
2018-03-08T10:58:45.647Z,65.36
2018-03-08T10:59:47.530Z,65.73
2018-03-08T11:00:49.700Z,65.73
2018-03-08T11:01:51.216Z,66.02
2018-03-08T11:02:53.040Z,66.21
2018-03-08T11:03:54.910Z,66.31
2018-03-08T11:04:56.798Z,66.21
2018-03-08T11:05:58.682Z,65.96
2018-03-08T11:07:12.841Z,65.77
2018-03-08T11:08:14.724Z,65.39
2018-03-08T11:09:16.589Z,64.75
2018-03-08T11:10:18.464Z,63.99
2018-03-08T11:11:20.288Z,63.23
2018-03-08T11:12:22.089Z,62.94
2018-03-08T11:13:23.976Z,62.78
2018-03-08T11:14:25.841Z,62.21
2018-03-08T11:15:27.705Z,61.32
2018-03-08T11:16:41.845Z,61.51
2018-03-08T11:17:43.741Z,61.51
2018-03-08T11:18:45.656Z,61.41
2018-03-08T11:19:47.528Z,61.51
2018-03-08T11:20:49.346Z,61.70
2018-03-08T11:21:51.152Z,60.58
2018-03-08T11:22:53.040Z,61.25
2018-03-08T11:23:54.907Z,60.21
2018-03-08T11:24:56.799Z,59.85
2018-03-08T11:26:11.005Z,59.76
2018-03-08T11:27:12.890Z,59.09
2018-03-08T11:28:14.763Z,58.77
2018-03-08T11:29:16.628Z,58.29
2018-03-08T11:30:18.412Z,58.55
2018-03-08T11:31:20.254Z,59.03
2018-03-08T11:32:22.136Z,59.51
2018-03-08T11:33:24.020Z,60.08
2018-03-08T11:34:25.910Z,59.60
2018-03-08T11:35:40.076Z,59.60
2018-03-08T11:36:41.948Z,59.60
2018-03-08T11:37:43.835Z,59.22
2018-03-08T11:38:45.723Z,58.94
2018-03-08T11:39:47.536Z,59.06
2018-03-08T11:40:49.356Z,59.25
2018-03-08T11:41:51.216Z,59.53
2018-03-08T11:42:53.084Z,59.34
2018-03-08T11:43:54.952Z,59.06
2018-03-08T11:45:09.108Z,58.77
2018-03-08T11:46:10.983Z,58.48
2018-03-08T11:47:12.860Z,58.58
2018-03-08T11:48:14.727Z,58.01
2018-03-08T11:49:16.536Z,58.01
2018-03-08T11:50:18.341Z,58.20
2018-03-08T11:51:20.209Z,57.92
2018-03-08T11:52:22.071Z,57.63
2018-03-08T11:53:23.961Z,57.34
2018-03-08T11:54:38.168Z,57.53
2018-03-08T11:55:39.984Z,57.72
2018-03-08T11:56:41.872Z,57.98
2018-03-08T11:57:43.759Z,58.07
2018-03-08T11:58:45.560Z,57.89
2018-03-08T11:59:47.365Z,57.89
2018-03-08T12:00:49.255Z,58.65
2018-03-08T12:01:51.136Z,58.65
2018-03-08T12:02:53.071Z,58.75
2018-03-08T12:04:07.174Z,59.22
2018-03-08T12:05:09.035Z,58.75
2018-03-08T12:06:10.903Z,58.94
2018-03-08T12:07:12.785Z,59.31
2018-03-08T12:08:14.595Z,59.60
2018-03-08T12:09:16.420Z,59.03
2018-03-08T12:10:18.307Z,58.46
2018-03-08T12:11:20.191Z,58.33
2018-03-08T12:12:22.059Z,58.24
2018-03-08T12:13:36.196Z,58.91
2018-03-08T12:14:38.085Z,59.00
2018-03-08T12:15:39.950Z,59.67
2018-03-08T12:16:41.838Z,59.38
2018-03-08T12:17:43.664Z,58.91
2018-03-08T12:18:45.483Z,58.33
2018-03-08T12:19:47.350Z,58.55
2018-03-08T12:20:49.313Z,58.65
2018-03-08T12:21:51.309Z,58.26
2018-03-08T12:23:05.563Z,57.60
2018-03-08T12:24:07.558Z,57.98
2018-03-08T12:25:09.727Z,57.34
2018-03-08T12:26:11.677Z,57.24
2018-03-08T12:27:13.599Z,56.29
2018-03-08T12:28:15.484Z,55.24
2018-03-08T12:29:17.478Z,54.77
2018-03-08T12:30:19.483Z,54.38
2018-03-08T12:31:21.387Z,53.33
2018-03-08T12:32:35.550Z,53.21
2018-03-08T12:33:37.421Z,53.66
2018-03-08T12:34:39.287Z,54.14
2018-03-08T12:35:41.175Z,54.59
2018-03-08T12:36:43.001Z,54.68
2018-03-08T12:37:44.804Z,55.70
2018-03-08T12:38:46.666Z,55.80
2018-03-08T12:39:48.532Z,56.46
2018-03-08T12:40:50.416Z,57.70
2018-03-08T12:42:04.552Z,58.06
2018-03-08T12:43:06.412Z,58.15
2018-03-08T12:44:08.291Z,58.34
2018-03-08T12:45:10.156Z,58.34
2018-03-08T12:46:11.975Z,59.20
2018-03-08T12:47:13.779Z,60.44
2018-03-08T12:48:15.663Z,60.82
2018-03-08T12:49:17.518Z,60.34
2018-03-08T12:50:19.376Z,60.34
2018-03-08T12:51:33.546Z,59.58
2018-03-08T12:52:35.423Z,60.44
2018-03-08T12:53:37.288Z,59.70
2018-03-08T12:54:39.172Z,59.61
2018-03-08T12:55:40.994Z,59.03
2018-03-08T12:56:42.792Z,59.32
2018-03-08T12:57:44.656Z,59.42
2018-03-08T12:58:46.533Z,59.13
2018-03-08T12:59:48.403Z,58.53
2018-03-08T13:01:02.553Z,58.15
2018-03-08T13:02:04.464Z,58.34
2018-03-08T13:03:06.273Z,58.44
2018-03-08T13:04:08.177Z,58.62
2018-03-08T13:05:09.990Z,58.25
2018-03-08T13:06:11.799Z,57.99
2018-03-08T13:07:13.664Z,57.67
2018-03-08T13:08:15.545Z,57.48
2018-03-08T13:09:17.424Z,57.10
2018-03-08T13:10:31.586Z,57.67
2018-03-08T13:11:33.467Z,58.08
2018-03-08T13:12:35.307Z,57.99
2018-03-08T13:13:37.190Z,58.18
2018-03-08T13:14:39.012Z,57.60
2018-03-08T13:15:40.808Z,56.94
2018-03-08T13:16:42.675Z,56.75
2018-03-08T13:17:44.553Z,56.46
2018-03-08T13:18:46.420Z,56.65
2018-03-08T13:20:00.577Z,56.40
2018-03-08T13:21:02.457Z,56.78
2018-03-08T13:22:04.321Z,56.30
2018-03-08T13:23:06.199Z,56.02
2018-03-08T13:24:08.005Z,55.83
2018-03-08T13:25:09.826Z,54.97
2018-03-08T13:26:11.682Z,54.68
2018-03-08T13:27:13.545Z,54.97
2018-03-08T13:28:15.415Z,54.97
2018-03-08T13:29:29.570Z,55.26
2018-03-08T13:30:31.454Z,54.97
2018-03-08T13:31:33.314Z,55.44
2018-03-08T13:32:35.189Z,55.16
2018-03-08T13:33:36.995Z,54.88
2018-03-08T13:34:38.827Z,54.68
2018-03-08T13:35:40.677Z,54.59
2018-03-08T13:36:42.535Z,54.39
2018-03-08T13:37:44.406Z,53.83
2018-03-08T13:38:58.537Z,53.83
2018-03-08T13:40:00.416Z,54.21
2018-03-08T13:41:02.279Z,53.92
2018-03-08T13:42:04.166Z,54.21
2018-03-08T13:43:05.984Z,53.35
2018-03-08T13:44:07.779Z,53.44
2018-03-08T13:45:09.643Z,53.61
2018-03-08T13:46:11.500Z,54.08
2018-03-08T13:47:13.368Z,54.39
2018-03-08T13:48:27.499Z,54.47
2018-03-08T13:49:29.364Z,54.27
2018-03-08T13:50:31.244Z,53.42
2018-03-08T13:51:33.104Z,54.08
2018-03-08T13:52:34.913Z,54.47
2018-03-08T13:53:36.714Z,54.37
2018-03-08T13:54:38.578Z,53.96
2018-03-08T13:55:40.437Z,54.63
2018-03-08T13:56:42.320Z,54.53
2018-03-08T13:57:56.480Z,54.53
2018-03-08T13:58:58.337Z,54.53
2018-03-08T14:00:00.219Z,54.72
2018-03-08T14:01:02.106Z,55.10
2018-03-08T14:02:03.929Z,54.44
2018-03-08T14:03:05.724Z,54.06
2018-03-08T14:04:07.584Z,54.15
2018-03-08T14:05:09.460Z,54.25
2018-03-08T14:06:11.329Z,54.25
2018-03-08T14:07:25.454Z,54.06
2018-03-08T14:08:27.319Z,53.49
2018-03-08T14:09:29.183Z,53.39
2018-03-08T14:10:31.063Z,53.39
2018-03-08T14:11:32.865Z,53.39
2018-03-08T14:12:34.655Z,53.01
2018-03-08T14:13:36.522Z,52.82
2018-03-08T14:14:38.396Z,53.20
2018-03-08T14:15:40.255Z,53.11
2018-03-08T14:16:54.388Z,52.53
2018-03-08T14:17:56.253Z,53.39
2018-03-08T14:18:58.134Z,53.42
2018-03-08T14:20:00.025Z,53.32
2018-03-08T14:21:01.847Z,53.13
2018-03-08T14:22:03.661Z,52.66
2018-03-08T14:23:05.520Z,53.23
2018-03-08T14:24:07.384Z,52.94
2018-03-08T14:25:09.264Z,52.37
2018-03-08T14:26:23.398Z,51.80
2018-03-08T14:27:25.264Z,52.18
2018-03-08T14:28:27.143Z,51.89
2018-03-08T14:29:29.006Z,51.89
2018-03-08T14:30:30.824Z,52.28
2018-03-08T14:31:32.631Z,51.99
2018-03-08T14:32:34.509Z,51.42
2018-03-08T14:33:36.374Z,51.23
2018-03-08T14:34:38.253Z,51.51
2018-03-08T14:35:52.387Z,51.89
2018-03-08T14:36:54.249Z,51.99
2018-03-08T14:37:56.117Z,51.35
2018-03-08T14:38:57.996Z,51.64
2018-03-08T14:39:59.799Z,50.87
2018-03-08T14:41:01.606Z,50.49
2018-03-08T14:42:03.532Z,51.06
2018-03-08T14:43:05.360Z,50.78
2018-03-08T14:44:07.241Z,50.97
2018-03-08T14:45:21.395Z,50.87
2018-03-08T14:46:23.274Z,50.78
2018-03-08T14:47:25.136Z,50.78
2018-03-08T14:48:27.003Z,51.16
2018-03-08T14:49:28.809Z,50.87
2018-03-08T14:50:30.607Z,50.87
2018-03-08T14:51:32.406Z,50.87
2018-03-08T14:52:34.211Z,51.16
2018-03-08T14:53:36.085Z,51.25
2018-03-08T14:54:50.228Z,51.82
2018-03-08T14:55:52.109Z,52.01
2018-03-08T14:56:53.989Z,52.49
2018-03-08T14:57:55.847Z,52.78
2018-03-08T14:58:57.650Z,52.97
2018-03-08T14:59:59.465Z,52.97
2018-03-08T15:01:01.329Z,53.73
2018-03-08T15:02:03.195Z,52.78
2018-03-08T15:03:05.079Z,52.78
2018-03-08T15:04:19.239Z,53.00
2018-03-08T15:05:21.120Z,52.90
2018-03-08T15:06:23.017Z,53.09
2018-03-08T15:07:24.885Z,53.09
2018-03-08T15:08:26.692Z,52.71
2018-03-08T15:09:28.492Z,53.09
2018-03-08T15:10:30.355Z,53.09
2018-03-08T15:11:32.220Z,53.19
2018-03-08T15:12:34.106Z,53.09
2018-03-08T15:13:48.261Z,52.80
2018-03-08T15:14:50.137Z,53.19
2018-03-08T15:15:52.000Z,53.66
2018-03-08T15:16:53.866Z,53.38
2018-03-08T15:17:55.685Z,53.44
2018-03-08T15:18:57.491Z,53.25
2018-03-08T15:19:59.347Z,53.25
2018-03-08T15:21:01.211Z,53.92
2018-03-08T15:22:03.093Z,53.83
2018-03-08T15:23:17.302Z,53.76
2018-03-08T15:24:19.181Z,53.73
2018-03-08T15:25:21.041Z,53.64
2018-03-08T15:26:22.908Z,53.64
2018-03-08T15:27:24.728Z,53.73
2018-03-08T15:28:26.552Z,53.73
2018-03-08T15:29:28.410Z,53.25
2018-03-08T15:30:30.309Z,53.54
2018-03-08T15:31:32.173Z,54.02
2018-03-08T15:32:46.357Z,54.21
2018-03-08T15:33:48.218Z,54.11
2018-03-08T15:34:50.096Z,54.30
2018-03-08T15:35:51.964Z,54.30
2018-03-08T15:36:53.771Z,54.02
2018-03-08T15:37:55.595Z,54.14
2018-03-08T15:38:57.452Z,54.24
2018-03-08T15:39:59.346Z,54.24
2018-03-08T15:41:01.217Z,54.52
2018-03-08T15:42:15.408Z,54.59
2018-03-08T15:43:17.291Z,54.39
2018-03-08T15:44:19.173Z,54.24
2018-03-08T15:45:21.058Z,54.43
2018-03-08T15:46:22.886Z,54.30
2018-03-08T15:47:24.722Z,53.73
2018-03-08T15:48:26.589Z,54.49
2018-03-08T15:49:28.446Z,54.02
2018-03-08T15:50:30.325Z,53.83
2018-03-08T15:51:44.461Z,54.39
2018-03-08T15:52:46.339Z,54.30
2018-03-08T15:53:48.206Z,54.49
2018-03-08T15:54:50.081Z,54.21
2018-03-08T15:55:51.884Z,54.02
2018-03-08T15:56:53.692Z,54.21
2018-03-08T15:57:55.569Z,54.30
2018-03-08T15:58:57.434Z,54.21
2018-03-08T15:59:59.296Z,54.30
2018-03-08T16:01:13.431Z,54.59
2018-03-08T16:02:15.295Z,54.68
2018-03-08T16:03:17.180Z,54.68
2018-03-08T16:04:19.048Z,54.78
2018-03-08T16:05:20.840Z,55.42
2018-03-08T16:06:22.642Z,55.73
2018-03-08T16:07:24.522Z,55.83
2018-03-08T16:08:26.386Z,55.90
2018-03-08T16:09:28.269Z,55.99
2018-03-08T16:10:42.424Z,55.99
2018-03-08T16:11:44.305Z,55.90
2018-03-08T16:12:46.183Z,56.46
2018-03-08T16:13:48.047Z,56.37
2018-03-08T16:14:49.866Z,56.85
2018-03-08T16:15:51.671Z,56.46
2018-03-08T16:16:53.545Z,56.94
2018-03-08T16:17:55.412Z,57.42
2018-03-08T16:18:57.296Z,57.20
2018-03-08T16:20:11.446Z,57.67
2018-03-08T16:21:13.330Z,58.25
2018-03-08T16:22:15.219Z,58.06
2018-03-08T16:23:17.089Z,57.87
2018-03-08T16:24:18.892Z,58.44
2018-03-08T16:25:20.718Z,58.25
2018-03-08T16:26:22.588Z,58.91
2018-03-08T16:27:24.474Z,58.91
2018-03-08T16:28:26.347Z,59.58
2018-03-08T16:29:40.484Z,59.29
2018-03-08T16:30:42.359Z,59.39
2018-03-08T16:31:44.219Z,60.15
2018-03-08T16:32:46.104Z,59.86
2018-03-08T16:33:47.919Z,60.34
2018-03-08T16:34:49.737Z,60.31
2018-03-08T16:35:51.619Z,60.31
2018-03-08T16:36:53.456Z,60.88
2018-03-08T16:37:55.315Z,60.88
2018-03-08T16:39:09.451Z,61.64
2018-03-08T16:40:11.329Z,61.45
2018-03-08T16:41:13.206Z,61.83
2018-03-08T16:42:15.070Z,61.83
2018-03-08T16:43:16.869Z,62.30
2018-03-08T16:44:18.668Z,62.02
2018-03-08T16:45:20.502Z,62.30
2018-03-08T16:46:22.361Z,62.69
2018-03-08T16:47:24.238Z,62.59
2018-03-08T16:48:38.415Z,63.04
2018-03-08T16:49:40.303Z,63.23
2018-03-08T16:50:42.178Z,62.94
2018-03-08T16:51:44.043Z,63.32
2018-03-08T16:52:45.863Z,63.51
2018-03-08T16:53:47.658Z,63.42
2018-03-08T16:54:49.508Z,63.89
2018-03-08T16:55:51.370Z,63.70
2018-03-08T16:56:53.252Z,64.46
2018-03-08T16:58:07.400Z,64.37
2018-03-08T16:59:09.285Z,64.65
2018-03-08T17:00:11.123Z,64.65
2018-03-08T17:01:13.002Z,65.22
2018-03-08T17:02:14.793Z,65.51
2018-03-08T17:03:16.619Z,65.51
2018-03-08T17:04:18.453Z,65.70
2018-03-08T17:05:20.327Z,65.51
2018-03-08T17:06:22.175Z,65.99
2018-03-08T17:07:36.342Z,66.42
2018-03-08T17:08:38.183Z,66.24
2018-03-08T17:09:40.041Z,66.80
2018-03-08T17:10:41.920Z,66.61
2018-03-08T17:11:43.715Z,67.00
2018-03-08T17:12:45.509Z,67.00
2018-03-08T17:13:47.363Z,66.90
2018-03-08T17:14:49.218Z,67.38
2018-03-08T17:15:51.099Z,67.28
2018-03-08T17:17:05.228Z,67.28
2018-03-08T17:18:07.163Z,67.28
2018-03-08T17:19:08.949Z,67.28
2018-03-08T17:20:10.804Z,67.28
2018-03-08T17:21:12.605Z,67.57
2018-03-08T17:22:14.393Z,67.76
2018-03-08T17:23:16.272Z,68.23
2018-03-08T17:24:18.154Z,68.04
2018-03-08T17:25:20.006Z,67.85
2018-03-08T17:26:34.149Z,67.94
2018-03-08T17:27:36.007Z,68.42
2018-03-08T17:28:37.898Z,68.80
2018-03-08T17:29:39.731Z,68.61
2018-03-08T17:30:41.527Z,68.90
2018-03-08T17:31:43.324Z,68.80
2018-03-08T17:32:45.180Z,68.90
2018-03-08T17:33:47.062Z,68.71
2018-03-08T17:34:48.952Z,68.99
2018-03-08T17:36:03.147Z,69.37
2018-03-08T17:37:04.953Z,68.99
2018-03-08T17:38:06.812Z,68.99
2018-03-08T17:39:08.692Z,69.18
2018-03-08T17:40:10.509Z,69.37
2018-03-08T17:41:12.314Z,69.46
2018-03-08T17:42:14.175Z,69.66
2018-03-08T17:43:16.046Z,70.32
2018-03-08T17:44:17.902Z,70.32
2018-03-08T17:45:32.045Z,70.23
2018-03-08T17:46:33.905Z,70.42
2018-03-08T17:47:35.763Z,70.70
2018-03-08T17:48:37.634Z,70.51
2018-03-08T17:49:39.435Z,70.79
2018-03-08T17:50:41.255Z,71.08
2018-03-08T17:51:43.129Z,70.76
2018-03-08T17:52:44.981Z,70.99
2018-03-08T17:53:46.858Z,70.89
2018-03-08T17:55:01.005Z,71.52
2018-03-08T17:56:02.872Z,71.56
2018-03-08T17:57:04.733Z,71.27
2018-03-08T17:58:06.600Z,71.43
2018-03-08T17:59:08.403Z,71.23
2018-03-08T18:00:10.216Z,71.46
2018-03-08T18:01:12.088Z,71.52
2018-03-08T18:02:13.939Z,71.27
2018-03-08T18:03:15.798Z,70.76
2018-03-08T18:04:29.941Z,70.61
2018-03-08T18:05:31.800Z,70.76
2018-03-08T18:06:33.674Z,71.08
2018-03-08T18:07:35.545Z,70.95
2018-03-08T18:08:37.345Z,71.14
2018-03-08T18:09:39.136Z,70.67
2018-03-08T18:10:40.943Z,71.14
2018-03-08T18:11:42.738Z,70.95
2018-03-08T18:12:44.532Z,70.89
2018-03-08T18:13:58.661Z,70.89
2018-03-08T18:15:00.531Z,70.67
2018-03-08T18:16:02.393Z,70.95
2018-03-08T18:17:04.263Z,70.76
2018-03-08T18:18:06.064Z,70.89
2018-03-08T18:19:07.873Z,70.95
2018-03-08T18:20:09.772Z,70.86
2018-03-08T18:21:11.600Z,70.95
2018-03-08T18:22:13.451Z,70.86
2018-03-08T18:23:27.583Z,70.86
2018-03-08T18:24:29.439Z,71.23
2018-03-08T18:25:31.292Z,71.23
2018-03-08T18:26:33.145Z,71.23
2018-03-08T18:27:34.948Z,71.52
2018-03-08T18:28:36.757Z,71.43
2018-03-08T18:29:38.611Z,71.33
2018-03-08T18:30:40.487Z,71.62
2018-03-08T18:31:42.361Z,70.76
2018-03-08T18:32:56.487Z,70.67
2018-03-08T18:33:58.350Z,70.48
2018-03-08T18:35:00.220Z,70.95
2018-03-08T18:36:02.091Z,70.86
2018-03-08T18:37:03.904Z,71.33
2018-03-08T18:38:05.702Z,71.27
2018-03-08T18:39:07.554Z,70.95
2018-03-08T18:40:09.415Z,70.86
2018-03-08T18:41:11.289Z,70.76
2018-03-08T18:42:25.420Z,70.38
2018-03-08T18:43:27.293Z,71.04
2018-03-08T18:44:29.170Z,70.67
2018-03-08T18:45:31.044Z,71.04
2018-03-08T18:46:32.842Z,71.14
2018-03-08T18:47:34.648Z,70.95
2018-03-08T18:48:36.501Z,70.57
2018-03-08T18:49:38.356Z,71.43
2018-03-08T18:50:40.233Z,71.23
2018-03-08T18:51:54.404Z,71.62
2018-03-08T18:52:56.266Z,71.62
2018-03-08T18:53:58.142Z,71.52
2018-03-08T18:55:00.016Z,71.33
2018-03-08T18:56:01.893Z,71.81
2018-03-08T18:57:03.687Z,71.71
2018-03-08T18:58:05.499Z,72.00
2018-03-08T18:59:07.378Z,72.09
2018-03-08T19:00:09.279Z,71.71
2018-03-08T19:01:23.490Z,71.81
2018-03-08T19:02:25.347Z,72.00
2018-03-08T19:03:27.205Z,72.28
2018-03-08T19:04:29.077Z,72.09
2018-03-08T19:05:30.873Z,72.28
2018-03-08T19:06:32.664Z,72.00
2018-03-08T19:07:34.524Z,71.62
2018-03-08T19:08:36.395Z,71.71
2018-03-08T19:09:38.277Z,72.00
2018-03-08T19:10:52.417Z,72.00
2018-03-08T19:11:54.273Z,71.71
2018-03-08T19:12:56.135Z,71.43
2018-03-08T19:13:58.011Z,71.62
2018-03-08T19:14:59.820Z,71.71
2018-03-08T19:16:01.622Z,71.71
2018-03-08T19:17:03.490Z,71.52
2018-03-08T19:18:05.342Z,71.52
2018-03-08T19:19:07.205Z,71.52
2018-03-08T19:20:21.381Z,71.81
2018-03-08T19:21:23.232Z,71.71
2018-03-08T19:22:25.155Z,71.81
2018-03-08T19:23:27.018Z,71.71
2018-03-08T19:24:28.822Z,71.33
2018-03-08T19:25:30.635Z,71.71
2018-03-08T19:26:32.508Z,71.62
2018-03-08T19:27:34.385Z,71.81
2018-03-08T19:28:36.263Z,71.81
2018-03-08T19:29:50.404Z,71.71
2018-03-08T19:30:52.255Z,71.71
2018-03-08T19:31:54.114Z,71.71
2018-03-08T19:32:55.989Z,71.62
2018-03-08T19:33:57.813Z,71.23
2018-03-08T19:34:59.629Z,71.52
2018-03-08T19:36:01.496Z,71.43
2018-03-08T19:37:03.363Z,71.14
2018-03-08T19:38:05.210Z,71.52
2018-03-08T19:39:19.340Z,71.33
2018-03-08T19:40:21.216Z,71.33
2018-03-08T19:41:23.062Z,71.14
2018-03-08T19:42:24.917Z,71.14
2018-03-08T19:43:26.739Z,71.23
2018-03-08T19:44:28.531Z,71.14
2018-03-08T19:45:30.411Z,71.04
2018-03-08T19:46:32.263Z,70.95
2018-03-08T19:47:34.120Z,71.23
2018-03-08T19:48:48.300Z,70.95
2018-03-08T19:49:50.150Z,71.23
2018-03-08T19:50:52.007Z,71.43
2018-03-08T19:51:53.877Z,71.52
2018-03-08T19:52:55.687Z,71.14
2018-03-08T19:53:57.468Z,71.23
2018-03-08T19:54:59.327Z,71.33
2018-03-08T19:56:01.180Z,70.95
2018-03-08T19:57:03.035Z,71.33
2018-03-08T19:58:17.158Z,70.86
2018-03-08T19:59:19.020Z,70.67
2018-03-08T20:00:20.889Z,70.86
2018-03-08T20:01:22.743Z,70.95
2018-03-08T20:02:24.538Z,71.14
2018-03-08T20:03:26.330Z,71.04
2018-03-08T20:04:28.218Z,70.86
2018-03-08T20:05:30.070Z,71.23
2018-03-08T20:06:31.927Z,70.86
2018-03-08T20:07:46.053Z,70.76
2018-03-08T20:08:47.940Z,70.86
2018-03-08T20:09:49.797Z,70.67
2018-03-08T20:10:51.657Z,70.95
2018-03-08T20:11:53.483Z,71.43
2018-03-08T20:12:55.318Z,71.43
2018-03-08T20:13:57.203Z,71.14
2018-03-08T20:14:59.079Z,71.43
2018-03-08T20:16:00.952Z,71.04
2018-03-08T20:17:15.094Z,71.23
2018-03-08T20:18:16.958Z,71.04
2018-03-08T20:19:18.823Z,71.14
2018-03-08T20:20:20.677Z,71.23
2018-03-08T20:21:22.499Z,71.14
2018-03-08T20:22:24.330Z,71.33
2018-03-08T20:23:26.200Z,71.23
2018-03-08T20:24:28.053Z,71.71
2018-03-08T20:25:29.912Z,71.62
2018-03-08T20:26:44.039Z,71.52
2018-03-08T20:27:45.896Z,71.52
2018-03-08T20:28:47.771Z,71.62
2018-03-08T20:29:49.643Z,71.71
2018-03-08T20:30:51.463Z,71.62
2018-03-08T20:31:53.291Z,71.43
2018-03-08T20:32:55.152Z,71.62
2018-03-08T20:33:57.026Z,71.81
2018-03-08T20:34:58.881Z,71.43
2018-03-08T20:36:13.070Z,71.52
2018-03-08T20:37:14.928Z,71.43
2018-03-08T20:38:16.788Z,71.62
2018-03-08T20:39:18.658Z,71.62
2018-03-08T20:40:20.461Z,71.62
2018-03-08T20:41:22.273Z,71.23
2018-03-08T20:42:24.140Z,71.23
2018-03-08T20:43:26.012Z,71.33
2018-03-08T20:44:27.862Z,71.43
2018-03-08T20:45:41.988Z,71.23
2018-03-08T20:46:43.861Z,71.23
2018-03-08T20:47:45.715Z,71.04
2018-03-08T20:48:47.583Z,71.81
2018-03-08T20:49:49.388Z,71.71
2018-03-08T20:50:51.195Z,72.09
2018-03-08T20:51:53.052Z,71.71
2018-03-08T20:52:54.905Z,71.81
2018-03-08T20:53:56.771Z,72.09
2018-03-08T20:55:10.910Z,72.38
2018-03-08T20:56:12.768Z,71.81
2018-03-08T20:57:14.623Z,72.38
2018-03-08T20:58:16.485Z,72.09
2018-03-08T20:59:18.276Z,71.62
2018-03-08T21:00:20.065Z,71.43
2018-03-08T21:01:21.921Z,71.33
2018-03-08T21:02:23.782Z,71.23
2018-03-08T21:03:25.636Z,71.14
2018-03-08T21:04:39.781Z,70.95
2018-03-08T21:05:41.634Z,71.14
2018-03-08T21:06:43.538Z,70.86
2018-03-08T21:07:45.363Z,70.86
2018-03-08T21:08:47.176Z,71.23
2018-03-08T21:09:48.961Z,70.95
2018-03-08T21:10:50.821Z,71.23
2018-03-08T21:11:52.693Z,70.86
2018-03-08T21:12:54.545Z,71.43
2018-03-08T21:14:08.675Z,70.57
2018-03-08T21:15:10.534Z,70.76
